Terminal Aerodrome Forecast
Issued by NWS Cleveland, OH

Home | Current Version | Previous Version | Graphics & Text | Print | Product List | Glossary On
Versions: 1 2 3 4 5 6 7 8 9 10 11 12 13 14 15 16
000
FTUS41 KCLE 160523
TAFYNG
TAF
KYNG 160523Z 1606/1706 33008KT P6SM VCSH BKN025 OVC035
     FM161300 31008KT P6SM SCT025 OVC035
     FM161900 31009KT P6SM SCT040
     FM170100 VRB03KT P6SM SCT035=

USA.gov is the U.S. government's official web portal to all federal, state and local government web resources and services.